Time;durP1;ratioP1;P1;durP2;ratioP2;P2;SDS_P1;SDS_P2;PMS_P1;PMS_P2;Temp;Humidity;BMP_temperature;BMP_pressure;BME280_temperature;BME280_humidity;BME280_pressure;Samples;Min_cycle;Max_cycle;Signal;HPM_P1;HPM_P2
2023/06/22 00:01:47;;;;;;;5.70;5.30;;;;;;;;;;5080637;28;20198;-79
2023/06/22 00:04:15;;;;;;;6.88;6.18;;;;;;;;;;5077000;28;20202;-78
2023/06/22 00:06:42;;;;;;;6.50;5.50;;;;;;;;;;5080692;28;20313;-79
2023/06/22 00:09:10;;;;;;;6.03;5.53;;;;;;;;;;5076628;28;20217;-79
2023/06/22 00:11:37;;;;;;;5.70;5.30;;;;;;;;;;5080482;28;20230;-79
2023/06/22 00:14:04;;;;;;;6.53;5.60;;;;;;;;;;5078504;28;20294;-79
2023/06/22 00:16:33;;;;;;;5.63;5.13;;;;;;;;;;5079425;28;20194;-80
2023/06/22 00:19:01;;;;;;;6.75;6.05;;;;;;;;;;5073007;28;20195;-80
2023/06/22 00:21:30;;;;;;;6.72;5.97;;;;;;;;;;5082391;28;20198;-79
2023/06/22 00:23:58;;;;;;;8.65;6.53;;;;;;;;;;5078175;28;20206;-80
2023/06/22 00:26:25;;;;;;;8.23;6.25;;;;;;;;;;5078180;28;20241;-79
2023/06/22 00:28:52;;;;;;;6.45;5.88;;;;;;;;;;5080306;28;20227;-80
2023/06/22 00:31:19;;;;;;;6.50;5.85;;;;;;;;;;5077687;28;20210;-81
2023/06/22 00:33:47;;;;;;;6.85;5.57;;;;;;;;;;5082549;28;20207;-82
2023/06/22 00:36:16;;;;;;;6.57;5.97;;;;;;;;;;5078727;28;20230;-82
2023/06/22 00:38:44;;;;;;;6.40;5.70;;;;;;;;;;5072190;28;20289;-82
2023/06/22 00:41:11;;;;;;;6.47;5.88;;;;;;;;;;5076224;28;20217;-83
2023/06/22 00:43:38;;;;;;;6.75;6.15;;;;;;;;;;5075554;28;20299;-84
2023/06/22 00:46:06;;;;;;;7.25;6.55;;;;;;;;;;5076573;28;20199;-83
2023/06/22 00:48:33;;;;;;;7.32;6.65;;;;;;;;;;5081964;28;20202;-83
2023/06/22 00:51:00;;;;;;;5.82;5.43;;;;;;;;;;5077663;28;20202;-83
2023/06/22 00:53:27;;;;;;;7.60;6.90;;;;;;;;;;5080832;28;20205;-82
2023/06/22 00:55:59;;;;;;;7.20;6.50;;;;;;;;;;5075275;28;20203;-82
2023/06/22 00:58:26;;;;;;;6.50;6.00;;;;;;;;;;5071806;28;20218;-82
2023/06/22 01:00:54;;;;;;;7.18;6.57;;;;;;;;;;5079374;28;20206;-75
2023/06/22 01:03:21;;;;;;;6.97;6.35;;;;;;;;;;5076416;28;20210;-75
2023/06/22 01:05:49;;;;;;;6.43;5.80;;;;;;;;;;5080820;28;20203;-74
2023/06/22 01:08:21;;;;;;;6.47;5.97;;;;;;;;;;5079472;28;20227;-74
2023/06/22 01:10:52;;;;;;;7.07;6.50;;;;;;;;;;5077268;28;20209;-75
2023/06/22 01:13:27;;;;;;;7.03;6.38;;;;;;;;;;5081064;28;20210;-75
2023/06/22 01:15:57;;;;;;;6.93;6.25;;;;;;;;;;5077917;28;20296;-75
2023/06/22 01:18:25;;;;;;;6.35;5.85;;;;;;;;;;5078491;28;20203;-76
2023/06/22 01:20:53;;;;;;;5.97;5.50;;;;;;;;;;5073544;28;20199;-76
2023/06/22 01:23:25;;;;;;;7.18;6.43;;;;;;;;;;5078056;28;20214;-76
2023/06/22 01:25:58;;;;;;;7.10;6.50;;;;;;;;;;5078350;28;20202;-75
2023/06/22 01:28:33;;;;;;;7.28;6.68;;;;;;;;;;5074754;28;20218;-76
2023/06/22 01:31:05;;;;;;;6.93;6.43;;;;;;;;;;5077671;28;20213;-75
2023/06/22 01:33:34;;;;;;;7.28;6.68;;;;;;;;;;5075648;28;20207;-75
2023/06/22 01:36:02;;;;;;;7.85;7.15;;;;;;;;;;5075955;28;20206;-76
2023/06/22 01:38:30;;;;;;;7.40;6.70;;;;;;;;;;5074309;28;20203;-76
2023/06/22 01:40:58;;;;;;;9.85;8.93;;;;;;;;;;5078397;28;20201;-78
2023/06/22 01:43:26;;;;;;;9.20;8.30;;;;;;;;;;5079385;28;20201;-78
2023/06/22 01:45:55;;;;;;;8.00;7.40;;;;;;;;;;5075183;28;20191;-78
2023/06/22 01:48:23;;;;;;;7.38;6.72;;;;;;;;;;5076779;28;20219;-77
2023/06/22 01:50:50;;;;;;;7.30;6.43;;;;;;;;;;5075008;28;20290;-76
2023/06/22 01:53:17;;;;;;;7.43;6.78;;;;;;;;;;5076694;28;20202;-76
2023/06/22 01:55:45;;;;;;;7.10;6.45;;;;;;;;;;5068814;28;20206;-76
2023/06/22 01:58:12;;;;;;;6.13;5.63;;;;;;;;;;5082611;28;20202;-76
2023/06/22 02:00:40;;;;;;;6.80;6.30;;;;;;;;;;5073626;28;20266;-76
2023/06/22 02:03:12;;;;;;;6.20;5.70;;;;;;;;;;5075824;28;20202;-75
2023/06/22 02:05:42;;;;;;;6.88;6.18;;;;;;;;;;5071863;28;20205;-75
2023/06/22 02:08:11;;;;;;;6.65;6.03;;;;;;;;;;5079504;28;20233;-75
2023/06/22 02:10:40;;;;;;;6.47;5.97;;;;;;;;;;5074424;28;20221;-75
2023/06/22 02:13:08;;;;;;;7.25;6.65;;;;;;;;;;5077849;28;20205;-75
2023/06/22 02:15:36;;;;;;;6.57;5.97;;;;;;;;;;5075138;28;20202;-74
2023/06/22 02:18:03;;;;;;;8.88;7.55;;;;;;;;;;5069740;28;20199;-74
2023/06/22 02:20:32;;;;;;;8.32;7.63;;;;;;;;;;5077775;28;20255;-75
2023/06/22 02:22:59;;;;;;;7.70;7.00;;;;;;;;;;5077044;28;20225;-74
2023/06/22 02:25:26;;;;;;;7.32;6.72;;;;;;;;;;5076459;28;20194;-75
2023/06/22 02:27:53;;;;;;;7.78;7.07;;;;;;;;;;5074778;28;20223;-75
2023/06/22 02:30:20;;;;;;;8.02;7.32;;;;;;;;;;5081923;28;20313;-75
2023/06/22 02:32:48;;;;;;;8.10;7.30;;;;;;;;;;5080907;28;20237;-74
2023/06/22 02:35:15;;;;;;;8.35;7.65;;;;;;;;;;5074111;28;20210;-74
2023/06/22 02:37:43;;;;;;;7.90;7.20;;;;;;;;;;5074585;28;20210;-74
2023/06/22 02:40:11;;;;;;;6.82;6.22;;;;;;;;;;5076225;28;20202;-74
2023/06/22 02:42:39;;;;;;;7.68;6.97;;;;;;;;;;5073453;28;20203;-74
2023/06/22 02:45:06;;;;;;;8.13;7.43;;;;;;;;;;5077152;28;20195;-74
2023/06/22 02:47:33;;;;;;;7.57;6.97;;;;;;;;;;5075076;28;20217;-74
2023/06/22 02:50:01;;;;;;;7.82;7.13;;;;;;;;;;5075459;28;20289;-73
2023/06/22 02:52:28;;;;;;;7.32;6.78;;;;;;;;;;5076408;28;20248;-73
2023/06/22 02:54:57;;;;;;;8.18;7.38;;;;;;;;;;5069030;28;20211;-74
2023/06/22 02:57:24;;;;;;;7.72;7.03;;;;;;;;;;5071940;28;20192;-73
2023/06/22 02:59:51;;;;;;;8.43;7.63;;;;;;;;;;5073952;28;20199;-73
2023/06/22 03:02:21;;;;;;;7.85;7.15;;;;;;;;;;5069992;28;20194;-73
2023/06/22 03:04:49;;;;;;;8.15;7.45;;;;;;;;;;5069951;28;20224;-73
2023/06/22 03:07:17;;;;;;;7.68;7.10;;;;;;;;;;5078281;28;20207;-73
2023/06/22 03:09:44;;;;;;;8.07;7.47;;;;;;;;;;5078130;28;20203;-73
2023/06/22 03:12:12;;;;;;;7.72;7.05;;;;;;;;;;5069781;28;20293;-73
2023/06/22 03:14:40;;;;;;;9.52;7.68;;;;;;;;;;5070248;28;20202;-73
2023/06/22 03:17:07;;;;;;;7.88;7.10;;;;;;;;;;5072897;28;20199;-74
2023/06/22 03:19:35;;;;;;;8.45;7.72;;;;;;;;;;5073480;28;20214;-74
2023/06/22 03:22:02;;;;;;;7.25;6.55;;;;;;;;;;5078491;28;20194;-74
2023/06/22 03:24:29;;;;;;;7.25;6.65;;;;;;;;;;5074358;28;20209;-74
2023/06/22 03:26:57;;;;;;;8.25;7.05;;;;;;;;;;5072401;28;20205;-74
2023/06/22 03:29:26;;;;;;;7.75;7.15;;;;;;;;;;5074147;28;20214;-74
2023/06/22 03:31:53;;;;;;;8.05;7.35;;;;;;;;;;5074830;28;20241;-74
2023/06/22 03:34:20;;;;;;;6.90;6.40;;;;;;;;;;5078915;28;20199;-74
2023/06/22 03:36:47;;;;;;;7.07;6.40;;;;;;;;;;5074224;28;20294;-75
2023/06/22 03:39:14;;;;;;;9.57;7.25;;;;;;;;;;5068970;28;20199;-74
2023/06/22 03:41:42;;;;;;;7.40;6.80;;;;;;;;;;5074720;28;20195;-74
2023/06/22 03:44:12;;;;;;;7.13;6.45;;;;;;;;;;5068929;28;20297;-75
2023/06/22 03:46:41;;;;;;;7.68;7.07;;;;;;;;;;5078935;28;20209;-75
2023/06/22 03:49:08;;;;;;;7.70;7.05;;;;;;;;;;5080418;28;20234;-75
2023/06/22 03:51:35;;;;;;;7.88;7.20;;;;;;;;;;5080678;28;20209;-75
2023/06/22 03:54:02;;;;;;;7.95;6.85;;;;;;;;;;5083478;28;20198;-75
2023/06/22 03:56:29;;;;;;;7.90;7.10;;;;;;;;;;5079447;28;20209;-75
2023/06/22 03:58:57;;;;;;;7.85;7.13;;;;;;;;;;5079361;28;20203;-75
2023/06/22 04:01:24;;;;;;;6.97;6.38;;;;;;;;;;5077648;28;20199;-75
2023/06/22 04:03:52;;;;;;;8.45;7.60;;;;;;;;;;5076023;28;20217;-75
2023/06/22 04:06:20;;;;;;;7.63;7.03;;;;;;;;;;5078229;28;20294;-75
2023/06/22 04:08:50;;;;;;;7.88;7.28;;;;;;;;;;5076767;28;20229;-76
2023/06/22 04:11:18;;;;;;;8.20;7.40;;;;;;;;;;5077575;28;20209;-76
2023/06/22 04:13:45;;;;;;;7.38;6.72;;;;;;;;;;5078219;28;20202;-75
2023/06/22 04:16:12;;;;;;;7.88;7.18;;;;;;;;;;5075875;28;20210;-76
2023/06/22 04:18:39;;;;;;;7.22;6.57;;;;;;;;;;5072462;28;20270;-75
2023/06/22 04:21:08;;;;;;;7.85;7.15;;;;;;;;;;5079857;28;20203;-75
2023/06/22 04:23:35;;;;;;;7.47;6.78;;;;;;;;;;5079812;28;20236;-75
2023/06/22 04:26:02;;;;;;;7.78;6.82;;;;;;;;;;5078225;28;20198;-76
2023/06/22 04:28:34;;;;;;;7.20;6.47;;;;;;;;;;5077397;28;20235;-75
2023/06/22 04:31:02;;;;;;;7.20;6.60;;;;;;;;;;5071763;28;20238;-75
2023/06/22 04:33:30;;;;;;;8.18;6.75;;;;;;;;;;5075976;28;20201;-75
2023/06/22 04:35:57;;;;;;;8.10;7.40;;;;;;;;;;5073878;28;20203;-75
2023/06/22 04:38:26;;;;;;;7.43;6.72;;;;;;;;;;5072045;28;20203;-75
2023/06/22 04:40:54;;;;;;;7.47;6.78;;;;;;;;;;5068323;28;20230;-76
2023/06/22 04:43:21;;;;;;;7.60;6.90;;;;;;;;;;5075769;28;20199;-76
2023/06/22 04:45:52;;;;;;;7.60;6.68;;;;;;;;;;5074744;28;20207;-75
2023/06/22 04:48:19;;;;;;;7.88;7.18;;;;;;;;;;5074876;28;20229;-75
2023/06/22 04:50:46;;;;;;;6.72;6.20;;;;;;;;;;5074424;28;20206;-75
2023/06/22 04:53:14;;;;;;;8.75;7.07;;;;;;;;;;5075499;28;20206;-74
2023/06/22 04:55:46;;;;;;;7.32;6.72;;;;;;;;;;5077886;28;20198;-75
2023/06/22 04:58:13;;;;;;;8.02;7.22;;;;;;;;;;5074914;28;20206;-77
2023/06/22 05:00:41;;;;;;;7.82;7.07;;;;;;;;;;5074674;28;20280;-76
2023/06/22 05:03:11;;;;;;;7.53;6.88;;;;;;;;;;5072624;28;20301;-76
2023/06/22 05:05:39;;;;;;;7.32;6.55;;;;;;;;;;5078346;28;20206;-77
2023/06/22 05:08:12;;;;;;;6.90;6.40;;;;;;;;;;5072799;28;20229;-76
2023/06/22 05:10:39;;;;;;;7.10;6.50;;;;;;;;;;5074638;28;20270;-76
2023/06/22 05:13:10;;;;;;;7.30;6.60;;;;;;;;;;5076681;28;20217;-76
2023/06/22 05:15:39;;;;;;;7.22;6.60;;;;;;;;;;5068361;28;20217;-76
2023/06/22 05:18:11;;;;;;;7.43;6.72;;;;;;;;;;5078771;28;20202;-76
2023/06/22 05:20:39;;;;;;;6.95;6.32;;;;;;;;;;5077639;28;20202;-75
2023/06/22 05:23:07;;;;;;;7.10;6.15;;;;;;;;;;5074711;28;20298;-75
2023/06/22 05:25:35;;;;;;;6.85;6.18;;;;;;;;;;5073719;28;20319;-76
2023/06/22 05:28:11;;;;;;;6.82;6.22;;;;;;;;;;5077309;28;20241;-75
2023/06/22 05:30:40;;;;;;;7.43;6.72;;;;;;;;;;5074715;28;20206;-76
2023/06/22 05:33:07;;;;;;;7.15;6.15;;;;;;;;;;5068529;28;20200;-73
2023/06/22 05:35:43;;;;;;;7.25;6.57;;;;;;;;;;5076617;28;20205;-73
2023/06/22 05:38:11;;;;;;;6.30;5.82;;;;;;;;;;5073994;28;20205;-73
2023/06/22 05:40:46;;;;;;;7.40;6.80;;;;;;;;;;5079116;28;20194;-72
2023/06/22 05:43:13;;;;;;;7.43;6.38;;;;;;;;;;5072367;28;20198;-72
2023/06/22 05:45:41;;;;;;;7.10;6.57;;;;;;;;;;5075424;28;20217;-73
2023/06/22 05:48:09;;;;;;;7.22;6.63;;;;;;;;;;5067733;28;20223;-73
2023/06/22 05:50:36;;;;;;;6.75;6.15;;;;;;;;;;5073199;28;20202;-73
2023/06/22 05:53:03;;;;;;;7.07;6.47;;;;;;;;;;5078957;28;20215;-72
2023/06/22 05:55:33;;;;;;;6.60;6.07;;;;;;;;;;5085375;28;20205;-73
2023/06/22 05:58:00;;;;;;;6.55;6.05;;;;;;;;;;5076072;28;20236;-72
2023/06/22 06:00:28;;;;;;;5.97;5.57;;;;;;;;;;5084338;28;20199;-72
2023/06/22 06:03:03;;;;;;;6.55;6.07;;;;;;;;;;5076253;28;20207;-72
2023/06/22 06:05:30;;;;;;;6.80;5.88;;;;;;;;;;5071265;28;20209;-72
2023/06/22 06:07:57;;;;;;;6.55;6.05;;;;;;;;;;5076582;28;20198;-73
2023/06/22 06:10:25;;;;;;;6.97;6.38;;;;;;;;;;5074171;28;20199;-71
2023/06/22 06:12:52;;;;;;;7.15;6.55;;;;;;;;;;5078415;28;20206;-72
2023/06/22 06:15:20;;;;;;;6.57;6.00;;;;;;;;;;5084761;28;20217;-72
2023/06/22 06:17:48;;;;;;;6.85;6.35;;;;;;;;;;5084099;28;20213;-72
2023/06/22 06:20:17;;;;;;;7.25;6.45;;;;;;;;;;5077715;28;20201;-72
2023/06/22 06:22:45;;;;;;;7.20;6.60;;;;;;;;;;5072734;28;20202;-72
2023/06/22 06:25:15;;;;;;;7.32;6.72;;;;;;;;;;5080233;28;20213;-72
2023/06/22 06:27:43;;;;;;;6.60;6.07;;;;;;;;;;5082221;28;20210;-71
2023/06/22 06:30:11;;;;;;;6.00;5.57;;;;;;;;;;5083147;28;20279;-72
2023/06/22 06:32:39;;;;;;;7.43;6.72;;;;;;;;;;5076321;28;20234;-71
2023/06/22 06:35:07;;;;;;;6.13;5.65;;;;;;;;;;5078319;28;20237;-71
2023/06/22 06:37:37;;;;;;;6.75;6.18;;;;;;;;;;5079026;28;20199;-71
2023/06/22 06:40:08;;;;;;;8.93;6.80;;;;;;;;;;5070106;28;20199;-71
2023/06/22 06:42:37;;;;;;;6.75;6.15;;;;;;;;;;5077368;28;20213;-72
2023/06/22 06:45:04;;;;;;;6.80;6.18;;;;;;;;;;5083053;28;20206;-71
2023/06/22 06:47:32;;;;;;;6.65;6.05;;;;;;;;;;5078537;28;20218;-71
2023/06/22 06:49:59;;;;;;;6.60;6.10;;;;;;;;;;5072192;28;20223;-71
2023/06/22 06:52:27;;;;;;;6.70;6.10;;;;;;;;;;5077283;28;20207;-70
2023/06/22 06:54:55;;;;;;;6.88;6.05;;;;;;;;;;5078559;28;20229;-71
2023/06/22 06:57:23;;;;;;;6.18;5.68;;;;;;;;;;5077792;28;20202;-71
2023/06/22 06:59:51;;;;;;;6.78;6.25;;;;;;;;;;5075364;28;20313;-71
2023/06/22 07:02:18;;;;;;;6.93;6.32;;;;;;;;;;5078520;28;20198;-71
2023/06/22 07:04:46;;;;;;;6.85;6.13;;;;;;;;;;5074894;28;20207;-77
2023/06/22 07:07:14;;;;;;;6.30;5.80;;;;;;;;;;5079619;28;20210;-77
2023/06/22 07:09:41;;;;;;;6.28;5.68;;;;;;;;;;5074418;28;20230;-76
2023/06/22 07:12:10;;;;;;;7.43;5.95;;;;;;;;;;5067153;28;20206;-77
2023/06/22 07:14:37;;;;;;;6.57;6.13;;;;;;;;;;5065616;28;20206;-79
2023/06/22 07:17:05;;;;;;;6.47;5.88;;;;;;;;;;5069861;28;20255;-75
2023/06/22 07:19:32;;;;;;;6.95;6.35;;;;;;;;;;5072989;28;20200;-74
2023/06/22 07:22:00;;;;;;;6.85;6.25;;;;;;;;;;5077994;28;20259;-76
2023/06/22 07:24:27;;;;;;;6.15;5.70;;;;;;;;;;5075508;28;20206;-75
2023/06/22 07:26:54;;;;;;;6.50;5.93;;;;;;;;;;5079137;28;20310;-77
2023/06/22 07:29:23;;;;;;;5.88;5.43;;;;;;;;;;5076778;28;20215;-75
2023/06/22 07:31:52;;;;;;;7.13;6.63;;;;;;;;;;5076599;28;20280;-75
2023/06/22 07:34:20;;;;;;;6.40;5.82;;;;;;;;;;5080887;28;20213;-77
2023/06/22 07:36:48;;;;;;;6.57;6.07;;;;;;;;;;5073103;28;20294;-76
2023/06/22 07:39:15;;;;;;;7.07;6.47;;;;;;;;;;5076994;28;20280;-76
2023/06/22 07:41:42;;;;;;;6.25;5.65;;;;;;;;;;5079412;28;20206;-76
2023/06/22 07:44:10;;;;;;;6.88;6.28;;;;;;;;;;5085260;28;20271;-77
2023/06/22 07:46:39;;;;;;;7.75;6.03;;;;;;;;;;5085130;28;20210;-76
2023/06/22 07:49:07;;;;;;;6.53;6.03;;;;;;;;;;5082947;28;20272;-73
2023/06/22 07:51:35;;;;;;;6.72;6.15;;;;;;;;;;5077098;28;20218;-75
2023/06/22 07:54:02;;;;;;;6.63;5.95;;;;;;;;;;5066264;28;20202;-73
2023/06/22 07:56:30;;;;;;;6.55;6.03;;;;;;;;;;5069340;28;20210;-75
2023/06/22 07:58:59;;;;;;;7.05;5.95;;;;;;;;;;5072849;28;20202;-75
2023/06/22 08:01:28;;;;;;;6.50;5.90;;;;;;;;;;5075649;28;20234;-76
2023/06/22 08:03:57;;;;;;;6.43;5.80;;;;;;;;;;5073506;28;20206;-76
2023/06/22 08:06:24;;;;;;;6.47;5.97;;;;;;;;;;5078177;28;20207;-74
2023/06/22 08:08:58;;;;;;;6.57;5.97;;;;;;;;;;5076429;28;20235;-73
2023/06/22 08:11:26;;;;;;;7.10;6.50;;;;;;;;;;5076361;28;20267;-72
2023/06/22 08:13:55;;;;;;;6.15;5.68;;;;;;;;;;5074328;28;20206;-74
2023/06/22 08:16:23;;;;;;;7.47;6.28;;;;;;;;;;5081183;28;20206;-74
2023/06/22 08:18:50;;;;;;;7.10;6.50;;;;;;;;;;5081240;28;20230;-72
2023/06/22 08:21:19;;;;;;;6.60;6.10;;;;;;;;;;5076618;28;20203;-73
2023/06/22 08:23:46;;;;;;;6.00;5.50;;;;;;;;;;5079780;28;20210;-74
2023/06/22 08:26:13;;;;;;;6.63;6.03;;;;;;;;;;5075812;28;20210;-74
2023/06/22 08:28:41;;;;;;;6.40;5.90;;;;;;;;;;5078497;28;20209;-74
2023/06/22 08:31:12;;;;;;;6.88;6.18;;;;;;;;;;5079256;28;20235;-73
2023/06/22 08:33:39;;;;;;;7.07;6.22;;;;;;;;;;5072157;28;20248;-72
2023/06/22 08:36:08;;;;;;;7.03;6.32;;;;;;;;;;5073244;28;20203;-73
2023/06/22 08:38:36;;;;;;;6.35;5.68;;;;;;;;;;5078692;28;20202;-74
2023/06/22 08:41:04;;;;;;;6.80;5.85;;;;;;;;;;5079600;28;20284;-74
2023/06/22 08:43:31;;;;;;;6.13;5.63;;;;;;;;;;5082324;28;20202;-74
2023/06/22 08:45:58;;;;;;;7.35;6.18;;;;;;;;;;5081943;28;20198;-74
2023/06/22 08:48:25;;;;;;;7.63;6.35;;;;;;;;;;5079010;28;20268;-73
2023/06/22 08:50:53;;;;;;;6.47;5.90;;;;;;;;;;5076888;28;20280;-74
2023/06/22 08:53:20;;;;;;;6.03;5.53;;;;;;;;;;5078608;28;20198;-73
2023/06/22 08:55:50;;;;;;;7.78;6.60;;;;;;;;;;5079363;28;20210;-73
2023/06/22 08:58:20;;;;;;;6.80;6.20;;;;;;;;;;5077049;28;20248;-75
2023/06/22 09:00:47;;;;;;;6.63;6.10;;;;;;;;;;5077465;28;20258;-75
2023/06/22 09:03:14;;;;;;;7.72;6.60;;;;;;;;;;5079029;28;20202;-75
2023/06/22 09:05:42;;;;;;;6.70;5.95;;;;;;;;;;5076284;28;20289;-75
2023/06/22 09:08:09;;;;;;;7.55;6.55;;;;;;;;;;5083591;28;20309;-74
2023/06/22 09:10:36;;;;;;;7.00;6.15;;;;;;;;;;5077999;28;20268;-75
2023/06/22 09:13:05;;;;;;;7.65;6.85;;;;;;;;;;5082311;28;20206;-77
2023/06/22 09:15:34;;;;;;;9.70;7.90;;;;;;;;;;5077382;28;20216;-79
2023/06/22 09:18:01;;;;;;;17.05;8.82;;;;;;;;;;5077401;28;20202;-74
2023/06/22 09:20:28;;;;;;;15.43;9.32;;;;;;;;;;5085457;28;20248;-75
2023/06/22 09:22:56;;;;;;;10.82;9.27;;;;;;;;;;5077269;28;20201;-74
2023/06/22 09:25:23;;;;;;;11.38;9.07;;;;;;;;;;5083331;28;20262;-74
2023/06/22 09:27:50;;;;;;;10.23;9.00;;;;;;;;;;5075221;28;20213;-74
2023/06/22 09:30:19;;;;;;;11.00;8.98;;;;;;;;;;5076512;28;20276;-74
2023/06/22 09:32:47;;;;;;;10.75;8.95;;;;;;;;;;5074194;28;20342;-73
2023/06/22 09:35:14;;;;;;;10.77;9.63;;;;;;;;;;5077482;28;20214;-73
2023/06/22 09:37:41;;;;;;;11.73;9.85;;;;;;;;;;5076878;28;20240;-72
2023/06/22 09:40:11;;;;;;;10.98;9.98;;;;;;;;;;5087245;28;20198;-73
2023/06/22 09:42:38;;;;;;;9.23;8.43;;;;;;;;;;5071170;28;20276;-73
2023/06/22 09:45:06;;;;;;;8.38;7.40;;;;;;;;;;5077928;28;20195;-73
2023/06/22 09:47:35;;;;;;;8.38;7.10;;;;;;;;;;5073287;28;20292;-73
2023/06/22 09:50:02;;;;;;;11.05;8.35;;;;;;;;;;5075589;28;20227;-73
2023/06/22 09:52:29;;;;;;;8.50;7.65;;;;;;;;;;5078446;28;20228;-73
2023/06/22 09:54:57;;;;;;;8.65;7.80;;;;;;;;;;5078569;28;20207;-73
2023/06/22 09:57:24;;;;;;;8.30;7.60;;;;;;;;;;5062704;28;20209;-72
2023/06/22 09:59:52;;;;;;;8.82;8.07;;;;;;;;;;5076317;28;20203;-73
2023/06/22 10:02:19;;;;;;;7.47;6.78;;;;;;;;;;5077697;28;20209;-73
2023/06/22 10:04:48;;;;;;;6.50;6.00;;;;;;;;;;5075097;28;20230;-73
2023/06/22 10:07:15;;;;;;;8.57;7.88;;;;;;;;;;5066477;28;20208;-73
2023/06/22 10:09:42;;;;;;;8.95;8.05;;;;;;;;;;5080117;28;20343;-72
2023/06/22 10:12:10;;;;;;;8.65;7.95;;;;;;;;;;5080535;28;20267;-72
2023/06/22 10:14:37;;;;;;;9.00;8.30;;;;;;;;;;5074215;28;20210;-72
2023/06/22 10:17:07;;;;;;;9.13;8.32;;;;;;;;;;5078015;28;20202;-73
2023/06/22 10:19:36;;;;;;;8.38;7.68;;;;;;;;;;5078531;28;20198;-72
2023/06/22 10:22:05;;;;;;;9.40;8.60;;;;;;;;;;5080225;28;20194;-72
2023/06/22 10:24:33;;;;;;;9.02;8.32;;;;;;;;;;5081346;28;20202;-72
2023/06/22 10:27:01;;;;;;;9.40;8.60;;;;;;;;;;5084042;28;20255;-72
2023/06/22 10:29:28;;;;;;;8.32;7.63;;;;;;;;;;5076365;28;20207;-72
2023/06/22 10:31:55;;;;;;;9.15;8.25;;;;;;;;;;5073394;28;20241;-71
2023/06/22 10:34:23;;;;;;;9.32;7.88;;;;;;;;;;5075655;28;20203;-72
2023/06/22 10:36:50;;;;;;;8.95;8.13;;;;;;;;;;5074243;28;20210;-72
2023/06/22 10:39:18;;;;;;;9.23;8.40;;;;;;;;;;5074447;28;20217;-73
2023/06/22 10:41:46;;;;;;;8.15;7.55;;;;;;;;;;5076764;28;20206;-73
2023/06/22 10:44:13;;;;;;;7.60;7.00;;;;;;;;;;5077579;28;20217;-72
2023/06/22 10:46:40;;;;;;;9.02;8.13;;;;;;;;;;5079896;28;20214;-73
2023/06/22 10:49:08;;;;;;;8.45;7.65;;;;;;;;;;5077931;28;20276;-73
2023/06/22 10:51:35;;;;;;;10.30;8.82;;;;;;;;;;5080326;28;20217;-73
2023/06/22 10:54:04;;;;;;;8.00;7.40;;;;;;;;;;5078029;28;20207;-73
2023/06/22 10:56:33;;;;;;;7.75;6.82;;;;;;;;;;5081440;28;20209;-73
2023/06/22 10:59:01;;;;;;;8.45;7.65;;;;;;;;;;5082763;28;20292;-71
2023/06/22 11:01:31;;;;;;;8.50;7.80;;;;;;;;;;5081978;28;20277;-72
2023/06/22 11:03:58;;;;;;;9.45;8.52;;;;;;;;;;5077854;28;20230;-72
2023/06/22 11:06:25;;;;;;;8.15;7.45;;;;;;;;;;5071042;28;20291;-72
2023/06/22 11:08:53;;;;;;;8.38;7.68;;;;;;;;;;5074114;28;20222;-72
2023/06/22 11:11:20;;;;;;;8.43;7.80;;;;;;;;;;5079211;28;20229;-73
2023/06/22 11:13:49;;;;;;;8.30;7.55;;;;;;;;;;5076414;28;20259;-73
2023/06/22 11:16:16;;;;;;;7.40;6.70;;;;;;;;;;5075780;28;20270;-72
2023/06/22 11:18:44;;;;;;;8.02;7.25;;;;;;;;;;5076414;28;20210;-72
2023/06/22 11:21:11;;;;;;;7.32;6.75;;;;;;;;;;5076546;28;20210;-72
2023/06/22 11:23:38;;;;;;;7.68;7.07;;;;;;;;;;5078219;28;20221;-71
2023/06/22 11:26:06;;;;;;;8.05;7.30;;;;;;;;;;5072142;28;20195;-72
2023/06/22 11:28:33;;;;;;;8.77;7.78;;;;;;;;;;5071501;28;20225;-72
2023/06/22 11:31:02;;;;;;;7.43;6.75;;;;;;;;;;5076947;28;20242;-72
2023/06/22 11:33:29;;;;;;;7.47;6.88;;;;;;;;;;5074267;28;20199;-73
2023/06/22 11:35:57;;;;;;;7.60;6.90;;;;;;;;;;5077406;28;20207;-72
2023/06/22 11:38:24;;;;;;;7.68;7.07;;;;;;;;;;5070145;28;20203;-73
2023/06/22 11:40:52;;;;;;;6.70;6.10;;;;;;;;;;5079273;28;20252;-73
2023/06/22 11:43:19;;;;;;;6.85;6.35;;;;;;;;;;5074736;28;20213;-73
2023/06/22 11:45:46;;;;;;;6.35;5.85;;;;;;;;;;5070878;28;20210;-73
2023/06/22 11:48:15;;;;;;;6.78;6.28;;;;;;;;;;5080197;28;20284;-72
2023/06/22 11:50:42;;;;;;;6.50;5.90;;;;;;;;;;5070284;28;20229;-72
2023/06/22 11:53:10;;;;;;;7.07;6.18;;;;;;;;;;5076024;28;20213;-71
2023/06/22 11:55:37;;;;;;;6.55;6.03;;;;;;;;;;5073685;28;20240;-73
2023/06/22 11:58:06;;;;;;;6.50;5.95;;;;;;;;;;5070010;28;20206;-73
2023/06/22 12:00:33;;;;;;;6.47;5.97;;;;;;;;;;5068984;28;20195;-73
2023/06/22 12:03:01;;;;;;;7.80;6.30;;;;;;;;;;5074014;28;20214;-71
2023/06/22 12:05:30;;;;;;;7.40;6.70;;;;;;;;;;5073264;28;20212;-75
2023/06/22 12:07:57;;;;;;;7.30;6.70;;;;;;;;;;5071988;28;20199;-75
2023/06/22 12:10:25;;;;;;;7.07;6.38;;;;;;;;;;5082577;28;20229;-75
2023/06/22 12:12:53;;;;;;;7.00;6.43;;;;;;;;;;5077373;28;20205;-75
2023/06/22 12:15:20;;;;;;;6.68;6.07;;;;;;;;;;5077451;28;20329;-72
2023/06/22 12:17:48;;;;;;;7.60;6.00;;;;;;;;;;5073084;28;20221;-76
2023/06/22 12:20:18;;;;;;;6.93;6.32;;;;;;;;;;5073739;28;20206;-76
2023/06/22 12:22:47;;;;;;;8.10;6.35;;;;;;;;;;5074945;28;20211;-76
2023/06/22 12:25:14;;;;;;;6.95;6.22;;;;;;;;;;5071233;28;20256;-76
2023/06/22 12:27:42;;;;;;;6.18;5.70;;;;;;;;;;5075710;28;20217;-76
2023/06/22 12:30:10;;;;;;;6.40;5.78;;;;;;;;;;5068589;28;20206;-77
2023/06/22 12:32:37;;;;;;;8.05;6.55;;;;;;;;;;5074384;28;20321;-77
2023/06/22 12:35:07;;;;;;;6.20;5.60;;;;;;;;;;5069751;28;20207;-77
2023/06/22 12:37:34;;;;;;;7.85;6.18;;;;;;;;;;5078009;28;20214;-77
2023/06/22 12:40:05;;;;;;;6.35;5.82;;;;;;;;;;5078164;28;20206;-78
2023/06/22 12:42:34;;;;;;;6.72;6.13;;;;;;;;;;5073878;28;20425;-79
2023/06/22 12:45:01;;;;;;;7.10;5.72;;;;;;;;;;5077549;28;20205;-78
2023/06/22 12:47:29;;;;;;;6.30;5.70;;;;;;;;;;5082362;28;20194;-77
2023/06/22 12:49:56;;;;;;;8.60;5.88;;;;;;;;;;5075589;28;20198;-77
2023/06/22 12:52:24;;;;;;;6.35;5.80;;;;;;;;;;5070078;28;20213;-77
2023/06/22 12:54:52;;;;;;;7.35;5.82;;;;;;;;;;5071095;28;20202;-77
2023/06/22 12:57:20;;;;;;;6.18;5.38;;;;;;;;;;5077435;28;20198;-78
2023/06/22 12:59:48;;;;;;;6.75;6.00;;;;;;;;;;5076233;28;20257;-78
2023/06/22 13:02:16;;;;;;;6.63;6.03;;;;;;;;;;5069813;28;20234;-78
2023/06/22 13:04:46;;;;;;;7.20;6.57;;;;;;;;;;5072483;28;20555;-78
2023/06/22 13:07:14;;;;;;;7.43;6.72;;;;;;;;;;5076346;28;20218;-78
2023/06/22 13:09:41;;;;;;;7.22;6.63;;;;;;;;;;5073114;28;20267;-77
2023/06/22 13:12:09;;;;;;;7.20;6.60;;;;;;;;;;5076886;28;20256;-78
2023/06/22 13:14:38;;;;;;;7.82;5.97;;;;;;;;;;5073256;28;20191;-77
2023/06/22 13:17:06;;;;;;;7.97;6.80;;;;;;;;;;5077724;28;20210;-75
2023/06/22 13:19:33;;;;;;;7.80;6.68;;;;;;;;;;5075638;28;20228;-71
2023/06/22 13:22:02;;;;;;;12.07;7.20;;;;;;;;;;5067407;28;20206;-73
2023/06/22 13:24:29;;;;;;;14.13;8.43;;;;;;;;;;5070098;28;20207;-73
2023/06/22 13:26:57;;;;;;;10.18;8.57;;;;;;;;;;5077445;28;20210;-72
2023/06/22 13:29:24;;;;;;;16.17;8.98;;;;;;;;;;5072667;28;20229;-72
2023/06/22 13:31:57;;;;;;;13.63;9.38;;;;;;;;;;5072263;28;20238;-72
2023/06/22 13:34:24;;;;;;;19.55;8.73;;;;;;;;;;5080692;28;20210;-74
2023/06/22 13:36:51;;;;;;;13.63;5.78;;;;;;;;;;5067297;28;20271;-75
2023/06/22 13:39:18;;;;;;;9.32;5.30;;;;;;;;;;5075877;28;20218;-75
2023/06/22 13:41:45;;;;;;;5.63;4.43;;;;;;;;;;5077487;28;20205;-74
2023/06/22 13:44:12;;;;;;;7.25;4.22;;;;;;;;;;5078553;28;20207;-74
2023/06/22 13:46:39;;;;;;;6.60;3.85;;;;;;;;;;5075552;28;20207;-76
2023/06/22 13:49:08;;;;;;;11.05;3.95;;;;;;;;;;5068578;28;20203;-74
2023/06/22 13:51:35;;;;;;;9.93;3.72;;;;;;;;;;5069636;28;20218;-74
2023/06/22 13:54:03;;;;;;;5.38;3.72;;;;;;;;;;5072303;28;20233;-73
2023/06/22 13:56:31;;;;;;;6.53;3.53;;;;;;;;;;5071717;28;20238;-73
2023/06/22 13:58:58;;;;;;;5.75;3.22;;;;;;;;;;5075429;28;20221;-74
2023/06/22 14:01:26;;;;;;;6.43;3.80;;;;;;;;;;5074249;28;20221;-73
2023/06/22 14:03:53;;;;;;;6.05;3.20;;;;;;;;;;5075955;28;20199;-73
2023/06/22 14:06:22;;;;;;;8.20;3.50;;;;;;;;;;5076296;28;20206;-73
2023/06/22 14:08:50;;;;;;;7.88;3.63;;;;;;;;;;5068847;28;20221;-73
2023/06/22 14:11:18;;;;;;;6.43;3.90;;;;;;;;;;5071254;28;20225;-73
2023/06/22 14:13:45;;;;;;;7.18;3.70;;;;;;;;;;5069828;28;20253;-74
2023/06/22 14:16:13;;;;;;;6.20;3.30;;;;;;;;;;5074844;28;20218;-73
2023/06/22 14:18:46;;;;;;;4.97;3.15;;;;;;;;;;5070601;28;20209;-73
2023/06/22 14:21:18;;;;;;;7.93;3.40;;;;;;;;;;5078033;28;20210;-73
2023/06/22 14:23:49;;;;;;;6.05;3.67;;;;;;;;;;5071819;28;20286;-73
2023/06/22 14:26:17;;;;;;;6.05;3.10;;;;;;;;;;5073459;28;20206;-75
2023/06/22 14:28:47;;;;;;;6.15;3.10;;;;;;;;;;5067617;28;20206;-73
2023/06/22 14:31:14;;;;;;;6.05;3.42;;;;;;;;;;5071302;28;20230;-73
2023/06/22 14:33:42;;;;;;;4.05;3.03;;;;;;;;;;5067983;28;20194;-73
2023/06/22 14:36:09;;;;;;;5.93;3.30;;;;;;;;;;5064889;28;20206;-73
2023/06/22 14:38:36;;;;;;;5.10;2.97;;;;;;;;;;5070608;28;20198;-73
2023/06/22 14:41:04;;;;;;;8.05;3.50;;;;;;;;;;5075077;28;20194;-73
2023/06/22 14:43:32;;;;;;;6.57;3.55;;;;;;;;;;5077611;28;20198;-74
2023/06/22 14:45:59;;;;;;;3.88;2.90;;;;;;;;;;5073914;28;20198;-73
2023/06/22 14:48:26;;;;;;;5.40;3.20;;;;;;;;;;5079421;28;20212;-74